NCAR-RAP Real-Time Weather Data

Output produced by METARs form (12 August 2020  18:16 UTC)
found at http://weather.rap.ucar.edu/surface/
 
KCVG 121752Z VRB03KT 10SM SCT034 OVC230 28/19 A3008 RMK AO2 SLP173 T02830194 10283 20217 57004
KCVG 121652Z VRB03KT 10SM FEW028 SCT034 OVC240 28/20 A3008 RMK AO2 SLP174 T02830200
KCVG 121552Z 01004KT 10SM FEW022 SCT035 OVC220 27/21 A3009 RMK AO2 SLP177 T02720206
KCVG 121452Z 04003KT 10SM SCT034 OVC250 27/21 A3009 RMK AO2 SLP178 OVC THN T02720211 51005
KCVG 121352Z 06003KT 10SM FEW240 BKN300 26/21 A3009 RMK AO2 SLP178 T02560206
KCVG 121252Z 02005KT 10SM SCT240 BKN300 23/20 A3008 RMK AO2 SLP176 T02330200
KCVG 121152Z 02004KT 8SM BKN250 BKN300 22/20 A3007 RMK AO2 SLP174 T02170200 10233 20211 52012
KCVG 121052Z 35003KT 6SM BR BCFG FEW075 FEW140 SCT250 BKN300 21/19 A3006 RMK AO2 SLP170 VIRGA E T02110194
KCVG 120952Z 00000KT 10SM BKN250 22/20 A3005 RMK AO2 SLP166 T02170200
KCVG 120852Z 34005KT 10SM OVC250 22/20 A3004 RMK AO2 SLP161 T02170200 53001
KCVG 120752Z 00000KT 10SM SCT250 22/19 A3004 RMK AO2 SLP160 T02220194
KCVG 120652Z 00000KT 10SM FEW250 23/20 A3004 RMK AO2 SLP159 T02280200
KCVG 120552Z 35004KT 10SM SCT250 23/20 A3003 RMK AO2 SLP160 T02330200 10272 20211 51005
KCVG 120452Z 00000KT 10SM BKN250 22/19 A3003 RMK AO2 SLP160 T02170194 402830200
KCVG 120352Z 35003KT 10SM SCT250 23/20 A3002 RMK AO2 SLP157 T02330200
KCVG 120252Z 33003KT 10SM FEW034 SCT250 25/20 A3002 RMK AO2 SLP155 T02500200 51012
KCVG 120152Z 28004KT 10SM FEW031 SCT250 24/20 A3001 RMK AO2 SLP153 T02390200
KCVG 120052Z 27004KT 10SM FEW030 SCT250 25/20 A3000 RMK AO2 SLP149 T02500200
KCVG 112352Z 25004KT 10SM FEW030 SCT250 27/21 A2998 RMK AO2 SLP144 T02720206 10283 20267 56002
KCVG 112252Z 24003KT 10SM SCT030 BKN250 27/21 A2999 RMK AO2 SLP145 T02670206
KCVG 112152Z 21003KT 10SM SCT030 BKN250 28/21 A2999 RMK AO2 SLP144 T02780206
KCVG 112052Z 23005KT 10SM FEW028 FEW034 BKN250 28/21 A2999 RMK AO2 SLP145 T02780206 58012
KCVG 111952Z 18004KT 10SM SCT027 BKN250 28/21 A3001 RMK AO2 SLP150 T02780206
KCVG 111852Z 21004KT 10SM SCT024 BKN250 28/20 A3001 RMK AO2 SLP153 T02780200
KCVG 111752Z VRB05KT 10SM SCT024 BKN140 BKN250 27/20 A3002 RMK AO2 SLP158 T02670200 10272 20206 58004
KCVG 111729Z 18005KT 10SM SCT023 BKN250 27/21 A3003 RMK AO2 T02670206
KCVG 111652Z VRB04KT 10SM BKN024 BKN250 27/21 A3004 RMK AO2 SLP162 T02670206
KCVG 111552Z 29004KT 10SM SCT016 BKN021 BKN200 25/20 A3004 RMK AO2 CIG 015 36R SLP162 T02500200
KCVG 111515Z 28007KT 10SM BKN015 24/20 A3004 RMK AO2 T02390200
KCVG 111452Z 32006KT 10SM BKN012 BKN180 23/20 A3004 RMK AO2 SLP161 T02330200 53011
KCVG 111428Z 32005KT 10SM FEW008 BKN010 BKN180 23/19 A3003 RMK AO2 T02280194
KCVG 111359Z 32007KT 10SM BKN008 OVC180 22/19 A3002 RMK AO2 T02220194
KCVG 111352Z 32006KT 10SM SCT007 OVC180 22/19 A3002 RMK AO2 SLP157 SCT V BKN BINOVC T02220194
KCVG 111252Z 29006KT 10SM FEW006 OVC140 21/19 A3001 RMK AO2 SLP153 BINOVC T02110189
KCVG 111219Z 28008KT 10SM FEW005 BKN140 21/19 A3000 RMK AO2 T02110189
KCVG 111152Z 29005KT 10SM SCT140 BKN180 21/19 A3000 RMK AO2 SLP150 60000 70030 T02060189 10206 20200 53004
KCVG 111052Z 23004KT 10SM FEW100 BKN150 20/19 A3000 RMK AO2 SLP148 VIRGA NE T02000189
KCVG 110952Z 23005KT 10SM FEW015 SCT095 OVC130 21/19 A2999 RMK AO2 SLP144 T02060189
KCVG 110921Z 23005KT 10SM FEW006 SCT013 OVC130 20/19 A2998 RMK AO2 T02000189
KCVG 110909Z 24004KT 10SM SCT006 OVC012 21/19 A2999 RMK AO2 THN SPTS INOVC T02060189
KCVG 110852Z 27006KT 10SM BKN006 OVC012 21/19 A2999 RMK AO2 SLP145 60000 T02060189 53029
KCVG 110837Z 25006KT 10SM SCT005 BKN011 BKN150 20/19 A2998 RMK AO2 T02000189
KCVG 110823Z 27008KT 10SM FEW003 BKN150 BKN230 20/19 A2997 RMK AO2 PRESRR FEW V SCT T02000189
KCVG 110752Z 25003KT 10SM BKN150 BKN230 21/19 A2993 RMK AO2 SLP126 T02060189
KCVG 110652Z 16009KT 10SM BKN160 OVC210 20/19 A2990 RMK AO2 RAE01 SLP115 P0000 T02000189
KCVG 110552Z 17014KT 10SM -RA SCT110 OVC150 21/19 A2990 RMK AO2 PRESFR SLP116 P0001 60020 T02060189 10261 20206 58043
KCVG 110452Z 13005KT 10SM -RA FEW110 OVC140 21/19 A3000 RMK AO2 PRESFR SLP151 P0011 T02060189 402830200
KCVG 110352Z 36007KT 6SM RA BR FEW013 SCT060 BKN090 OVC140 21/19 A3005 RMK AO2 LTG DSNT E AND SE RAE00B32 TSE10 SLP168 TS MOV SE P0001 T02110189
KCVG 110310Z 35011KT 10SM FEW020 BKN075 BKN095 OVC170 22/19 A3004 RMK AO2 LTG DSNT ALQDS RAE00 TSE10 OCNL LTGIC DSNT E TS MOV SE CB DSNT NE-E S P0000 T02170194
KCVG 110252Z 35012KT 9SM -TSRA SCT045CB BKN070 OVC110 22/20 A3003 RMK AO2 PK WND 34035/0225 WSHFT 0214 LTG DSNT ALQDS RAB24 TSB12 SLP162 OCNL LTGIC NE TS NE S-SW MOV SE P0007 60007 T02170200 53030
KCVG 110246Z 35017G23KT 5SM TSRA BR FEW028 BKN045CB OVC075 22/19 A3002 RMK AO2 PK WND 34035/0225 WSHFT 0214 LTG DSNT ALQDS RAB24 TSB12 FRQ LTGICCC OHD-SW TS NE-OHD-SW MOV SE P0006
KCVG 110238Z 34018G33KT 2 1/2SM +TSRA FEW028 BKN041CB OVC055 22/19 A3001 RMK AO2 PK WND 34035/0225 WSHFT 0214 LTG DSNT ALQDS RAB24 TSB12 OCNL LTGICCC N-OHD-SW TS N-OHD-SW MOV SE P0000 T02220194
KCVG 110234Z 34023G35KT 8SM -TSRA FEW028 BKN041CB OVC055 23/19 A3001 RMK AO2 PK WND 34035/0225 WSHFT 0214 LTG DSNT NE AND SW AND W RAB24 TSB12 OCNL LTGICCC N-OHD-SW TS N-OHD-SW MOV SE P0000 T02280194
KCVG 110213Z 22007KT 10SM TS SCT055CB SCT065 OVC110 26/21 A2997 RMK AO2 LTG DSNT SW-N TSB12 OCNL LTGICCC N AND W TS NE SW MOV SE T02560211
KCVG 110152Z 20006KT 10SM SCT070 SCT085 OVC110 26/21 A2997 RMK AO2 LTG DSNT N AND W SLP137 T02560211
KCVG 110052Z 19004KT 10SM BKN075 BKN110 OVC120 26/21 A2996 RMK AO2 SLP134 T02560206
KCVG 102352Z 20005KT 10SM FEW045 FEW080 SCT250 26/21 A2994 RMK AO2 SLP129 T02610206 10283 20244 56011
KCVG 102252Z 20007KT 10SM FEW050 FEW085 SCT250 28/22 A2995 RMK AO2 SLP133 T02780217
KCVG 102152Z 20008KT 10SM FEW050 FEW120 SCT250 28/21 A2996 RMK AO2 SLP135 T02780211
KCVG 102052Z 19009KT 10SM FEW010 SCT050 BKN250 28/22 A2998 RMK AO2 SLP140 T02780217 58023
KCVG 101952Z 19010KT 10SM FEW010 FEW070 FEW100 BKN250 28/21 A3000 RMK AO2 SLP148 T02780211
KCVG 101852Z 17007KT 10SM FEW009 SCT100 BKN250 27/21 A3003 RMK AO2 SLP158 T02720211